サルタ空港の過去48時間の天気

サルタ空港 (Salta Aerodrome)

現在時刻: 1/23 00:25 -03 (1/23 03:25 UTC) 以下の時間は現地時間です。

過去48時間のMETAR気象情報
時間 風向 風速(m/s) 視程 気温(℃) 湿度(%) 気圧(hPa) 天気現象
22 23:00 北西 2 10km以上 22 88 1019
22 22:00 北北西 3 10km以上 22 88 1018
22 21:00 3 10km以上 22 88 1017
22 20:00 3 10km以上 23 78 1016
22 19:00 北北西 3 10km以上 25 74 1016
22 18:00 南南西 3 10km以上 25 74 1015
22 17:27 西北西 3 10km以上 27 54 1015
22 17:05 南東 5 8000m 28 51 1015 雷雨
22 17:00 南東 3 10km以上 28 51 1015
22 16:00 3 10km以上 29 52 1016
22 15:00 2 10km以上 29 55 1016
22 14:00 2 10km以上 28 58 1017
22 13:00 北東 3 10km以上 26 65 1018
22 12:00 北東 4 10km以上 25 69 1018
22 11:00 北東 3 10km以上 25 74 1018
22 10:00 北北東 2 10km以上 23 78 1018
22 09:00 北北東 3 10km以上 22 78 1017
22 08:00 北西 1 10km以上 20 94 1017
22 07:00 静穏 0 10km以上 20 88 1016
22 06:00 東南東 2 10km以上 20 88 1016
22 05:00 西 1 10km以上 20 88 1016
22 04:00 2 10km以上 19 94 1016
22 03:00 西 1 10km以上 21 83 1016
22 02:00 北西 2 10km以上 21 83 1017
22 01:00 北西 3 10km以上 21 83 1017
22 00:00 北西 3 10km以上 21 83 1017
21 23:00 4 10km以上 22 78 1016
21 22:00 北東 3 10km以上 23 73 1015
21 21:00 3 10km以上 24 61 1014
21 20:00 北東 3 10km以上 25 61 1014
21 19:00 北東 5 10km以上 27 58 1013
21 18:00 北東 3 10km以上 27 58 1013
21 17:00 3 10km以上 29 52 1014
21 16:00 3 10km以上 29 52 1015
21 15:00 南東 2 10km以上 27 54 1015
21 14:00 東北東 3 10km以上 25 65 1016
21 13:00 東南東 2 10km以上 25 69 1016
21 12:00 静穏 0 10km以上 23 78 1017
21 11:33 北西 1 10km以上 22 83 1018 周辺でしゅう雨
21 11:00 3 8000m 22 83 1018 弱い雨
21 10:44 4 8000m 23 78 1017 弱い雨
21 10:00 南東 6 8000m 23 73 1017
21 09:00 北北東 1 9000m 21 88 1016
21 08:00 南南西 2 8000m 20 94 1015
21 07:00 南西 3 8000m 19 88 1012
21 06:00 南南東 1 10km以上 19 94 1010
21 05:00 南西 2 8000m 20 94 1010
21 04:00 南南西 2 10km以上 19 94 1011
21 03:00 南南東 2 10km以上 19 94 1011
21 02:00 西南西 2 10km以上 20 94 1012
21 01:00 南東 2 10km以上 21 94 1014
SASA 230200Z 32004KT 9999 FEW025 BKN100 22/20 Q1019
SASA 230100Z 34005KT CAVOK 22/20 Q1018
SASA 230000Z 36005KT 9999 SCT035 SCT100 22/20 Q1017
SASA 222300Z 36006KT 9999 SCT035 23/19 Q1016
SASA 222200Z 34005KT 9999 SCT022 SCT100 25/20 Q1016
SASA 222100Z 20005KT 9999 SCT020 FEW040CB SCT100 25/20 Q1015 RETSRA
SASA 222027Z 29005KT 9999 FEW020 SCT025 FEW040CB 27/17 Q1015 RETS
SASA 222005Z 14009KT 8000 TSRA FEW020 FEW040CB SCT025 28/17 Q1015
SASA 222000Z 14005KT 9999 FEW020 FEW040CB SCT200 28/17 Q1015
SASA 221900Z 36005KT 9999 FEW020 FEW040CB 29/18 Q1016
SASA 221800Z 36004KT 9999 FEW020TCU SCT040CB 29/19 Q1016
SASA 221700Z 36004KT 9999 FEW020TCU SCT040CB 28/19 Q1017
SASA 221600Z 05006KT 9999 FEW020TCU SCT040CB 26/19 Q1018
SASA 221500Z 05007KT 9999 FEW020TCU SCT040CB 25/19 Q1018
SASA 221400Z 05006KT 9999 FEW015 SCT020TCU BKN100 25/20 Q1018
SASA 221300Z 02004KT 9999 FEW015 SCT020 BKN100 23/19 Q1018
SASA 221200Z 02005KT 9999 FEW015 SCT020 BKN100 22/18 Q1017
SASA 221100Z 32002KT 9999 SCT015TCU BKN100 20/19 Q1017
SASA 221000Z 00000KT 9999 SCT025 SCT100 20/18 Q1016
SASA 220900Z 11003KT CAVOK 20/18 Q1016
SASA 220800Z 27002KT CAVOK 20/18 Q1016
SASA 220700Z 36004KT CAVOK 19/18 Q1016
SASA 220600Z 27002KT CAVOK 21/18 Q1016
SASA 220500Z 32004KT CAVOK 21/18 Q1017
SASA 220400Z 32006KT CAVOK 21/18 Q1017
SASA 220300Z 32005KT CAVOK 21/18 Q1017
SASA 220200Z 36007KT CAVOK 22/18 Q1016
SASA 220100Z 05005KT 9999 FEW025 23/18 Q1015
SASA 220000Z 36006KT 9999 BKN025 24/16 Q1014
SASA 212300Z 05006KT 9999 BKN025 25/17 Q1014
SASA 212200Z 05009KT 9999 BKN020 SCT200 27/18 Q1013
SASA 212100Z 05006KT 9999 FEW015 BKN200 27/18 Q1013
SASA 212000Z 36005KT 9999 FEW015 BKN200 29/18 Q1014
SASA 211900Z 36006KT 9999 FEW015 SCT100 BKN200 29/18 Q1015
SASA 211800Z 14003KT 9999 FEW015 SCT100 BKN200 27/17 Q1015
SASA 211700Z 07005KT 9999 FEW015 SCT025TCU BKN100 25/18 Q1016
SASA 211600Z 11003KT 9999 FEW010 SCT025TCU BKN100 25/19 Q1016
SASA 211500Z 00000KT 9999 FEW008 SCT020 FEW040CB BKN100 23/19 Q1017 RERA
SASA 211433Z 32002KT 9999 VCSH FEW008 SCT020 FEW040CB 22/19 Q1018 RERA
SASA 211400Z 18006KT 8000 -RA FEW017 SCT020 FEW040CB 22/19 Q1018 RETS
SASA 211344Z 18007KT 8000 -RA BKN018 FEW040TCU OVC200 23/19 Q1017
SASA 211300Z 14011KT 8000 TS FEW015 FEW040CB SCT022 BKN200 23/18 Q1017
SASA 211200Z 02002KT 9000 FEW008 BKN022 OVC200 21/19 Q1016
SASA 211100Z 20004KT 8000 FEW006 SCT020 OVC200 20/19 Q1015
SASA 211000Z 23006KT 8000 SCT005 19/17 Q1012
SASA 210900Z 16002KT 9999 SCT005 19/18 Q1010
SASA 210800Z 23004KT 8000 SCT003 20/19 Q1010
SASA 210700Z 20003KT 9999 SCT003 19/18 Q1011
SASA 210600Z 16003KT CAVOK 19/18 Q1011
SASA 210500Z 25003KT 9999 FEW010 20/19 Q1012
SASA 210400Z 14004KT 9999 FEW015 BKN100 21/20 Q1014